British Trader — ZIPR7 — position and weather

sailwx.info

Track history (hours):
 
Tides and Currents Weather Stations Pressure Air Temp Water Temp Dewpoint Dewpoint Depression Visibility Wind Speed Wind Dir Waves Ship Positions

British Trader

Last reported at 2018-Apr-24 18:12 UTC. Time now 2018-Apr-24 22:59 UTC.
Position S 17°44' E 115°55'.

Length 278.9 m; beam 42.6 m; draft 12.1 m.

Type: Ship (hazmat cat A). MMSI: 235496000.

Date/timePositionNaut miles runAvg speedWind from/ knotsBaromVisibWave heightAir tempDewpointWater temp
2018-Apr-24 18:12S 17°44' E 115°55'9 9.8
2018-Apr-24 17:17S 17°35' E 115°56'3 9.9
2018-Apr-24 17:00S 17°32' E 115°56'5 9.8
2018-Apr-24 16:28S 17°27' E 115°56'24 9.5
2018-Apr-24 13:57S 17°03' E 115°58'48 8.8
2018-Apr-24 08:25S 16°18' E 116°19'12 9.6
2018-Apr-24 07:07S 16°08' E 116°26'  
2018-Apr-21 08:52S 05°04' E 112°14'511.2
2018-Apr-21 08:24S 05°02' E 112°09'1211.4
2018-Apr-21 07:19S 04°57' E 111°58'411.3
2018-Apr-21 06:59S 04°56' E 111°54'711.2
2018-Apr-21 06:23S 04°54' E 111°48'611.3
2018-Apr-21 05:53S 04°52' E 111°43'511.3
2018-Apr-21 05:28S 04°50' E 111°38'2511.2
2018-Apr-21 03:17S 04°40' E 111°16'411.6
2018-Apr-21 02:59S 04°39' E 111°13'611.5
2018-Apr-21 02:27S 04°36' E 111°07'812.0
2018-Apr-21 01:45S 04°33' E 110°59'312.1
2018-Apr-21 01:30S 04°32' E 110°56'712.1
2018-Apr-21 00:55S 04°30' E 110°50'714.6
2018-Apr-21 00:27S 04°29' E 110°43'1914.7
2018-Apr-20 23:10S 04°25' E 110°24'1512.8
2018-Apr-20 21:58S 04°20' E 110°10'1412.7
2018-Apr-20 20:52S 04°11' E 109°59'613.3
2018-Apr-20 20:25S 04°07' E 109°55'613.3
2018-Apr-20 19:58S 04°02' E 109°51'713.1
2018-Apr-20 19:26S 03°57' E 109°46'613.0
2018-Apr-20 19:00S 03°53' E 109°43'  
Track history (hours):
 
Tides and Currents Weather Stations Pressure Air Temp Water Temp Dewpoint Dewpoint Depression Visibility Wind Speed Wind Dir Waves Ship Positions

British Trader

Last reported at 2018-Apr-24 18:12 UTC. Time now 2018-Apr-24 22:59 UTC.
Position S 17°44' E 115°55'.

Length 278.9 m; beam 42.6 m; draft 12.1 m.

Type: Ship (hazmat cat A). MMSI: 235496000.

Date/timePositionNaut miles runAvg speedWind from/ knotsBaromVisibWave heightAir tempDewpointWater temp
2018-Apr-24 18:12S 17°44' E 115°55'9 9.8
2018-Apr-24 17:17S 17°35' E 115°56'3 9.9
2018-Apr-24 17:00S 17°32' E 115°56'5 9.8
2018-Apr-24 16:28S 17°27' E 115°56'24 9.5
2018-Apr-24 13:57S 17°03' E 115°58'48 8.8
2018-Apr-24 08:25S 16°18' E 116°19'12 9.6
2018-Apr-24 07:07S 16°08' E 116°26'  
2018-Apr-21 08:52S 05°04' E 112°14'511.2
2018-Apr-21 08:24S 05°02' E 112°09'1211.4
2018-Apr-21 07:19S 04°57' E 111°58'411.3
2018-Apr-21 06:59S 04°56' E 111°54'711.2
2018-Apr-21 06:23S 04°54' E 111°48'611.3
2018-Apr-21 05:53S 04°52' E 111°43'511.3
2018-Apr-21 05:28S 04°50' E 111°38'2511.2
2018-Apr-21 03:17S 04°40' E 111°16'411.6
2018-Apr-21 02:59S 04°39' E 111°13'611.5
2018-Apr-21 02:27S 04°36' E 111°07'812.0
2018-Apr-21 01:45S 04°33' E 110°59'312.1
2018-Apr-21 01:30S 04°32' E 110°56'712.1
2018-Apr-21 00:55S 04°30' E 110°50'714.6
2018-Apr-21 00:27S 04°29' E 110°43'1914.7
2018-Apr-20 23:10S 04°25' E 110°24'1512.8
2018-Apr-20 21:58S 04°20' E 110°10'1412.7
2018-Apr-20 20:52S 04°11' E 109°59'613.3
2018-Apr-20 20:25S 04°07' E 109°55'613.3
2018-Apr-20 19:58S 04°02' E 109°51'713.1
2018-Apr-20 19:26S 03°57' E 109°46'613.0
2018-Apr-20 19:00S 03°53' E 109°43'  

Dump ship's entire track history